createdAt,value
2019-06-01T00:02:24.571Z,16.80
2019-06-01T00:04:53.772Z,16.70
2019-06-01T00:07:29.845Z,16.80
2019-06-01T00:10:00.647Z,16.70
2019-06-01T00:12:29.842Z,16.70
2019-06-01T00:15:05.795Z,16.70
2019-06-01T00:17:35.277Z,16.60
2019-06-01T00:20:11.024Z,16.60
2019-06-01T00:22:41.179Z,16.50
2019-06-01T00:25:16.870Z,16.40
2019-06-01T00:27:46.729Z,16.30
2019-06-01T00:30:26.939Z,16.20
2019-06-01T00:32:53.848Z,16.20
2019-06-01T00:35:36.498Z,16.20
2019-06-01T00:38:05.625Z,16.20
2019-06-01T00:40:34.879Z,16.10
2019-06-01T00:43:10.377Z,16.00
2019-06-01T00:45:39.505Z,16.00
2019-06-01T00:48:14.977Z,15.90
2019-06-01T00:50:44.911Z,15.90
2019-06-01T00:53:20.673Z,15.90
2019-06-01T00:55:49.874Z,15.90
2019-06-01T00:58:25.930Z,16.00
2019-06-01T01:00:55.281Z,15.90
2019-06-01T01:03:30.803Z,15.90
2019-06-01T01:05:59.950Z,15.80
2019-06-01T01:08:35.877Z,15.80
2019-06-01T01:11:05.078Z,15.80
2019-06-01T01:13:34.289Z,15.70
2019-06-01T01:16:09.845Z,15.70
2019-06-01T01:18:38.988Z,15.60
2019-06-01T01:21:15.868Z,15.60
2019-06-01T01:23:46.111Z,15.60
2019-06-01T01:26:15.421Z,15.50
2019-06-01T01:28:52.713Z,15.40
2019-06-01T01:31:28.416Z,15.30
2019-06-01T01:34:04.595Z,15.40
2019-06-01T01:36:34.115Z,15.40
2019-06-01T01:39:09.463Z,15.40
2019-06-01T01:41:38.729Z,15.40
2019-06-01T01:44:07.878Z,15.40
2019-06-01T01:46:44.013Z,15.40
2019-06-01T01:49:13.131Z,15.40
2019-06-01T01:51:48.867Z,15.30
2019-06-01T01:54:17.972Z,15.30
2019-06-01T01:56:54.154Z,15.20
2019-06-01T01:59:30.839Z,15.00
2019-06-01T02:02:06.279Z,15.00
2019-06-01T02:04:35.490Z,15.00
2019-06-01T02:07:11.146Z,14.70
2019-06-01T02:09:40.294Z,14.70
2019-06-01T02:12:15.967Z,14.70
2019-06-01T02:14:45.058Z,14.70
2019-06-01T02:17:14.264Z,14.70
2019-06-01T02:19:49.591Z,14.80
2019-06-01T02:22:18.718Z,14.80
2019-06-01T02:24:55.787Z,14.80
2019-06-01T02:27:24.986Z,14.70
2019-06-01T02:30:04.947Z,14.50
2019-06-01T02:32:38.618Z,14.60
2019-06-01T02:35:15.712Z,14.70
2019-06-01T02:37:44.997Z,14.70
2019-06-01T02:40:14.307Z,14.70
2019-06-01T02:42:49.763Z,14.80
2019-06-01T02:45:19.781Z,14.70
2019-06-01T02:47:55.438Z,14.50
2019-06-01T02:50:24.660Z,14.30
2019-06-01T02:53:01.506Z,14.20
2019-06-01T02:55:30.872Z,14.10
2019-06-01T02:58:06.820Z,14.10
2019-06-01T03:01:31.196Z,14.10
2019-06-01T03:04:08.478Z,14.10
2019-06-01T03:06:41.142Z,14.10
2019-06-01T03:09:11.324Z,14.20
2019-06-01T03:11:48.054Z,14.20
2019-06-01T03:14:19.224Z,14.20
2019-06-01T03:16:59.635Z,14.10
2019-06-01T03:19:31.431Z,14.10
2019-06-01T03:22:08.722Z,14.10
2019-06-01T03:24:37.925Z,13.90
2019-06-01T03:27:13.493Z,13.90
2019-06-01T03:29:45.953Z,13.70
2019-06-01T03:32:35.262Z,13.60
2019-06-01T03:35:00.543Z,13.60
2019-06-01T03:37:37.859Z,13.60
2019-06-01T03:40:15.636Z,13.60
2019-06-01T03:42:45.204Z,13.50
2019-06-01T03:45:14.864Z,13.50
2019-06-01T03:47:50.678Z,13.50
2019-06-01T03:50:19.774Z,13.40
2019-06-01T03:52:55.354Z,13.40
2019-06-01T03:55:24.514Z,13.50
2019-06-01T03:58:00.925Z,13.60
2019-06-01T04:00:37.878Z,13.70
2019-06-01T04:03:13.457Z,13.80
2019-06-01T04:05:42.595Z,13.80
2019-06-01T04:08:11.799Z,13.90
2019-06-01T04:10:47.034Z,14.10
2019-06-01T04:13:16.156Z,14.20
2019-06-01T04:15:52.244Z,14.30
2019-06-01T04:18:21.190Z,14.50
2019-06-01T04:20:57.359Z,14.50
2019-06-01T04:23:26.506Z,14.60
2019-06-01T04:26:02.500Z,14.80
2019-06-01T04:28:38.032Z,15.00
2019-06-01T04:31:14.438Z,15.00
2019-06-01T04:33:43.636Z,15.00
2019-06-01T04:36:19.303Z,15.00
2019-06-01T04:38:48.502Z,14.90
2019-06-01T04:41:17.733Z,14.90
2019-06-01T04:43:53.041Z,14.90
2019-06-01T04:46:22.287Z,14.90
2019-06-01T04:48:57.674Z,14.80
2019-06-01T04:51:26.793Z,14.80
2019-06-01T04:53:55.965Z,14.90
2019-06-01T04:56:31.902Z,14.90
2019-06-01T04:59:08.876Z,15.10
2019-06-01T05:01:51.599Z,15.30
2019-06-01T05:04:21.120Z,15.70
2019-06-01T05:06:56.506Z,16.00
2019-06-01T05:09:25.647Z,16.30
2019-06-01T05:12:02.022Z,16.70
2019-06-01T05:14:31.236Z,17.00
2019-06-01T05:17:00.496Z,17.20
2019-06-01T05:19:35.964Z,17.40
2019-06-01T05:22:06.346Z,17.50
2019-06-01T05:24:42.610Z,17.60
2019-06-01T05:27:13.061Z,17.70
2019-06-01T05:29:55.318Z,17.90
2019-06-01T05:32:24.513Z,18.00
2019-06-01T05:35:00.226Z,18.20
2019-06-01T05:37:29.370Z,18.40
2019-06-01T05:39:58.513Z,18.60
2019-06-01T05:42:34.159Z,18.70
2019-06-01T05:45:11.180Z,19.10
2019-06-01T05:47:40.573Z,19.50
2019-06-01T05:50:10.631Z,19.70
2019-06-01T05:52:46.772Z,19.90
2019-06-01T05:55:16.774Z,20.00
2019-06-01T05:57:46.073Z,20.00
2019-06-01T06:00:22.510Z,19.90
2019-06-01T06:02:54.138Z,19.80
2019-06-01T06:05:30.275Z,19.70
2019-06-01T06:07:59.522Z,19.50
2019-06-01T06:10:34.972Z,19.70
2019-06-01T06:13:04.349Z,20.00
2019-06-01T06:15:40.471Z,20.50
2019-06-01T06:18:09.588Z,20.70
2019-06-01T06:20:39.087Z,21.10
2019-06-01T06:23:14.611Z,21.50
2019-06-01T06:25:50.897Z,21.50
2019-06-01T06:28:26.818Z,21.40
2019-06-01T06:30:56.163Z,21.40
2019-06-01T06:33:32.401Z,21.60
2019-06-01T06:36:01.606Z,21.80
2019-06-01T06:38:30.855Z,21.90
2019-06-01T06:41:06.275Z,22.20
2019-06-01T06:43:35.403Z,22.30
2019-06-01T06:46:11.005Z,22.50
2019-06-01T06:48:40.124Z,22.70
2019-06-01T06:51:17.264Z,22.90
2019-06-01T06:53:46.576Z,23.00
2019-06-01T06:56:22.107Z,23.10
2019-06-01T06:58:51.217Z,23.30
2019-06-01T07:01:34.529Z,23.50
2019-06-01T07:04:12.947Z,23.50
2019-06-01T07:06:47.986Z,23.50
2019-06-01T07:09:17.885Z,23.50
2019-06-01T07:11:47.225Z,23.60
2019-06-01T07:14:23.495Z,23.90
2019-06-01T07:16:52.700Z,24.20
2019-06-01T07:19:35.870Z,24.40
2019-06-01T07:22:04.970Z,24.50
2019-06-01T07:24:40.368Z,24.70
2019-06-01T07:27:09.483Z,24.90
2019-06-01T07:29:38.610Z,25.00
2019-06-01T07:32:14.720Z,25.30
2019-06-01T07:34:43.839Z,25.50
2019-06-01T07:37:20.669Z,25.70
2019-06-01T07:39:50.118Z,25.80
2019-06-01T07:42:26.638Z,26.00
2019-06-01T07:44:56.546Z,26.20
2019-06-01T07:47:27.204Z,26.40
2019-06-01T07:50:03.806Z,26.50
2019-06-01T07:52:39.598Z,26.70
2019-06-01T07:55:08.722Z,26.80
2019-06-01T07:57:37.726Z,26.90
2019-06-01T08:00:13.626Z,26.90
2019-06-01T08:02:49.328Z,26.90
2019-06-01T08:05:32.280Z,27.10
2019-06-01T08:08:02.739Z,27.10
2019-06-01T08:10:38.630Z,26.90
2019-06-01T08:13:07.742Z,27.00
2019-06-01T08:15:43.576Z,27.00
2019-06-01T08:18:12.725Z,27.20
2019-06-01T08:20:54.900Z,27.20
2019-06-01T08:23:24.182Z,27.10
2019-06-01T08:25:53.337Z,27.10
2019-06-01T08:28:29.085Z,27.20
2019-06-01T08:30:58.391Z,27.50
2019-06-01T08:33:35.008Z,27.60
2019-06-01T08:36:04.244Z,27.40
2019-06-01T08:38:39.796Z,27.60
2019-06-01T08:41:08.799Z,27.80
2019-06-01T08:43:44.386Z,27.60
2019-06-01T08:46:15.359Z,27.80
2019-06-01T08:48:50.926Z,28.00
2019-06-01T08:51:20.084Z,28.20
2019-06-01T08:53:56.438Z,28.00
2019-06-01T08:56:26.208Z,28.20
2019-06-01T08:58:55.575Z,28.40
2019-06-01T09:01:32.780Z,28.40
2019-06-01T09:04:09.496Z,28.10
2019-06-01T09:06:44.836Z,28.10
2019-06-01T09:09:14.056Z,28.10
2019-06-01T09:11:49.884Z,28.10
2019-06-01T09:14:20.617Z,28.00
2019-06-01T09:16:56.462Z,28.00
2019-06-01T09:19:25.614Z,28.20
2019-06-01T09:22:08.249Z,28.20
2019-06-01T09:24:37.531Z,28.40
2019-06-01T09:27:06.831Z,28.30
2019-06-01T09:29:44.758Z,28.30
2019-06-01T09:32:13.443Z,28.40
2019-06-01T09:34:49.309Z,28.00
2019-06-01T09:37:18.943Z,27.90
2019-06-01T09:39:54.462Z,27.90
2019-06-01T09:42:23.596Z,28.00
2019-06-01T09:44:59.064Z,28.10
2019-06-01T09:47:29.023Z,28.00
2019-06-01T09:49:58.347Z,28.10
2019-06-01T09:52:35.464Z,28.30
2019-06-01T09:55:05.059Z,28.30
2019-06-01T09:57:40.635Z,28.20
2019-06-01T10:00:10.898Z,28.10
2019-06-01T10:02:54.595Z,28.10
2019-06-01T10:05:30.293Z,28.10
2019-06-01T10:08:06.116Z,28.10
2019-06-01T10:10:35.988Z,28.20
2019-06-01T10:13:07.673Z,28.30
2019-06-01T10:15:43.343Z,28.40
2019-06-01T10:18:12.487Z,28.50
2019-06-01T10:20:47.906Z,28.60
2019-06-01T10:23:49.633Z,28.70
2019-06-01T10:26:24.060Z,28.60
2019-06-01T10:28:53.197Z,28.40
2019-06-01T10:31:28.906Z,28.20
2019-06-01T10:33:58.149Z,28.00
2019-06-01T10:36:27.378Z,27.80
2019-06-01T10:39:04.001Z,27.70
2019-06-01T10:41:35.314Z,27.70
2019-06-01T10:44:04.745Z,27.60
2019-06-01T10:46:42.188Z,27.60
2019-06-01T10:49:11.550Z,27.80
2019-06-01T10:51:47.652Z,27.70
2019-06-01T10:54:16.872Z,27.60
2019-06-01T10:56:53.489Z,27.60
2019-06-01T10:59:28.674Z,27.50
2019-06-01T11:02:04.052Z,27.50
2019-06-01T11:04:41.183Z,27.60
2019-06-01T11:07:16.956Z,27.40
2019-06-01T11:09:46.094Z,27.20
2019-06-01T11:12:23.862Z,27.20
2019-06-01T11:14:53.139Z,27.30
2019-06-01T11:17:22.311Z,27.10
2019-06-01T11:19:57.774Z,27.20
2019-06-01T11:22:33.581Z,27.30
2019-06-01T11:25:08.937Z,27.20
2019-06-01T11:27:39.614Z,27.20
2019-06-01T11:30:15.581Z,27.50
2019-06-01T11:32:45.168Z,27.60
2019-06-01T11:35:14.997Z,27.80
2019-06-01T11:37:51.398Z,27.80
2019-06-01T11:40:27.940Z,27.50
2019-06-01T11:42:57.120Z,27.50
2019-06-01T11:45:26.223Z,27.60
2019-06-01T11:48:02.510Z,27.50
2019-06-01T11:50:35.127Z,27.30
2019-06-01T11:53:10.815Z,27.50
2019-06-01T11:55:41.281Z,27.60
2019-06-01T11:58:18.864Z,27.80
2019-06-01T12:00:48.251Z,27.70
2019-06-01T12:03:24.383Z,27.50
2019-06-01T12:06:00.373Z,27.30
2019-06-01T12:08:36.021Z,27.10
2019-06-01T12:11:05.743Z,27.00
2019-06-01T12:13:36.001Z,26.80
2019-06-01T12:16:11.704Z,26.70
2019-06-01T12:18:40.909Z,26.90
2019-06-01T12:21:16.834Z,27.00
2019-06-01T12:23:53.086Z,27.00
2019-06-01T12:26:28.717Z,26.90
2019-06-01T12:28:57.912Z,26.70
2019-06-01T12:31:34.133Z,26.70
2019-06-01T12:34:03.236Z,26.70
2019-06-01T12:36:32.351Z,26.60
2019-06-01T12:39:08.086Z,26.40
2019-06-01T12:41:37.581Z,26.20
2019-06-01T12:44:21.214Z,26.20
2019-06-01T12:46:50.435Z,26.20
2019-06-01T12:49:26.148Z,26.10
2019-06-01T12:51:55.346Z,26.20
2019-06-01T12:54:31.068Z,26.20
2019-06-01T12:57:00.610Z,26.10
2019-06-01T12:59:36.521Z,26.10
2019-06-01T13:02:05.631Z,26.00
2019-06-01T13:04:49.334Z,26.10
2019-06-01T13:07:24.695Z,26.00
2019-06-01T13:10:01.013Z,26.00
2019-06-01T13:12:30.250Z,26.00
2019-06-01T13:15:00.465Z,26.00
2019-06-01T13:17:36.005Z,26.10
2019-06-01T13:20:05.662Z,26.20
2019-06-01T13:22:47.966Z,26.20
2019-06-01T13:25:17.281Z,26.30
2019-06-01T13:27:52.774Z,26.50
2019-06-01T13:30:21.996Z,26.60
2019-06-01T13:32:52.633Z,26.70
2019-06-01T13:35:28.005Z,26.70
2019-06-01T13:38:11.575Z,26.60
2019-06-01T13:40:34.553Z,26.50
2019-06-01T13:43:03.850Z,26.40
2019-06-01T13:45:39.741Z,26.40
2019-06-01T13:48:10.042Z,26.40
2019-06-01T13:50:46.368Z,26.60
2019-06-01T13:53:15.482Z,26.70
2019-06-01T13:55:50.837Z,26.90
2019-06-01T13:58:19.965Z,27.00
2019-06-01T14:00:56.188Z,27.00
2019-06-01T14:03:25.516Z,27.00
2019-06-01T14:06:08.388Z,27.10
2019-06-01T14:08:44.987Z,27.00
2019-06-01T14:11:20.748Z,27.00
2019-06-01T14:13:49.980Z,27.10
2019-06-01T14:16:19.300Z,27.00
2019-06-01T14:18:55.982Z,26.90
2019-06-01T14:21:31.297Z,26.90
2019-06-01T14:24:06.979Z,26.90
2019-06-01T14:26:42.901Z,27.00
2019-06-01T14:29:12.013Z,27.00
2019-06-01T14:31:48.531Z,27.20
2019-06-01T14:34:17.819Z,27.20
2019-06-01T14:36:47.010Z,27.30
2019-06-01T14:39:24.656Z,27.20
2019-06-01T14:41:53.757Z,27.20
2019-06-01T14:44:28.989Z,27.00
2019-06-01T14:47:03.758Z,26.90
2019-06-01T14:49:35.887Z,26.80
2019-06-01T14:52:10.015Z,26.80
2019-06-01T14:54:46.007Z,26.80
2019-06-01T14:57:15.151Z,26.90
2019-06-01T14:59:50.472Z,27.00
2019-06-01T15:02:19.639Z,27.00
2019-06-01T15:04:56.446Z,27.00
2019-06-01T15:07:32.571Z,27.00
2019-06-01T15:10:08.236Z,27.00
2019-06-01T15:12:37.567Z,27.00
2019-06-01T15:15:14.325Z,27.00
2019-06-01T15:17:44.033Z,26.90
2019-06-01T15:20:21.356Z,26.90
2019-06-01T15:22:50.597Z,26.90
2019-06-01T15:25:32.978Z,27.00
2019-06-01T15:28:03.819Z,26.90
2019-06-01T15:30:33.134Z,26.90
2019-06-01T15:33:09.225Z,26.90
2019-06-01T15:35:45.246Z,26.90
2019-06-01T15:38:14.415Z,26.80
2019-06-01T15:40:51.752Z,26.90
2019-06-01T15:43:21.012Z,26.90
2019-06-01T15:45:57.556Z,26.80
2019-06-01T15:48:26.776Z,26.70
2019-06-01T15:51:07.008Z,26.60
2019-06-01T15:53:34.335Z,26.70
2019-06-01T15:56:03.612Z,26.60
2019-06-01T15:58:52.312Z,26.60
2019-06-01T16:01:10.732Z,26.60
2019-06-01T16:03:46.086Z,26.60
2019-06-01T16:06:22.203Z,26.60
2019-06-01T16:09:04.816Z,26.60
2019-06-01T16:11:34.033Z,26.70
2019-06-01T16:14:10.180Z,26.70
2019-06-01T16:16:39.624Z,26.70
2019-06-01T16:19:15.811Z,26.60
2019-06-01T16:21:45.154Z,26.60
2019-06-01T16:24:29.859Z,26.60
2019-06-01T16:27:00.161Z,26.60
2019-06-01T16:29:36.202Z,26.60
2019-06-01T16:32:06.407Z,26.60
2019-06-01T16:34:41.969Z,26.60
2019-06-01T16:37:11.169Z,26.60
2019-06-01T16:39:40.569Z,26.60
2019-06-01T16:42:15.940Z,26.60
2019-06-01T16:44:51.934Z,26.60
2019-06-01T16:47:21.206Z,26.60
2019-06-01T16:49:50.386Z,26.60
2019-06-01T16:52:26.313Z,26.50
2019-06-01T16:54:56.173Z,26.50
2019-06-01T16:57:32.851Z,26.50
2019-06-01T17:00:02.775Z,26.40
2019-06-01T17:02:38.793Z,26.30
2019-06-01T17:05:08.427Z,26.40
2019-06-01T17:07:44.372Z,26.30
2019-06-01T17:10:25.534Z,26.30
2019-06-01T17:12:52.814Z,26.30
2019-06-01T17:15:22.072Z,26.30
2019-06-01T17:18:03.043Z,26.40
2019-06-01T17:20:39.979Z,26.40
2019-06-01T17:23:26.917Z,26.40
2019-06-01T17:25:58.409Z,26.40
2019-06-01T17:28:34.192Z,26.40
2019-06-01T17:31:04.306Z,26.40
2019-06-01T17:33:33.624Z,26.40
2019-06-01T17:36:09.652Z,26.40
2019-06-01T17:38:38.889Z,26.60
2019-06-01T17:41:14.428Z,26.70
2019-06-01T17:43:43.696Z,27.00
2019-06-01T17:46:19.033Z,27.20
2019-06-01T17:48:48.666Z,27.40
2019-06-01T17:51:24.433Z,27.60
2019-06-01T17:53:53.618Z,27.70
2019-06-01T17:56:29.269Z,27.90
2019-06-01T17:58:58.528Z,28.00
2019-06-01T18:01:34.876Z,28.00
2019-06-01T18:04:06.025Z,27.80
2019-06-01T18:06:41.786Z,27.60
2019-06-01T18:09:18.325Z,27.40
2019-06-01T18:11:57.352Z,27.10
2019-06-01T18:14:26.519Z,27.00
2019-06-01T18:17:02.140Z,26.80
2019-06-01T18:19:53.564Z,26.70
2019-06-01T18:22:29.770Z,26.60
2019-06-01T18:24:58.902Z,26.40
2019-06-01T18:27:41.374Z,26.30
2019-06-01T18:30:11.028Z,26.20
2019-06-01T18:32:46.331Z,26.00
2019-06-01T18:35:26.700Z,25.90
2019-06-01T18:38:03.704Z,25.80
2019-06-01T18:40:37.068Z,25.70
2019-06-01T18:43:16.462Z,25.60
2019-06-01T18:45:46.195Z,25.50
2019-06-01T18:48:22.479Z,25.40
2019-06-01T18:50:51.711Z,25.30
2019-06-01T18:53:27.816Z,25.20
2019-06-01T18:55:57.041Z,25.10
2019-06-01T18:58:32.831Z,25.10
2019-06-01T19:01:01.966Z,25.00
2019-06-01T19:03:32.893Z,24.90
2019-06-01T19:06:09.582Z,24.90
2019-06-01T19:08:46.185Z,24.80
2019-06-01T19:11:35.711Z,24.70
2019-06-01T19:13:59.903Z,24.70
2019-06-01T19:16:35.718Z,24.60
2019-06-01T19:19:06.242Z,24.50
2019-06-01T19:21:41.696Z,24.50
2019-06-01T19:24:10.845Z,24.40
2019-06-01T19:26:52.669Z,24.40
2019-06-01T19:29:23.904Z,24.40
2019-06-01T19:31:59.326Z,24.40
2019-06-01T19:34:28.673Z,24.40
2019-06-01T19:37:00.434Z,24.30
2019-06-01T19:39:37.770Z,24.30
2019-06-01T19:42:07.195Z,24.20
2019-06-01T19:44:43.573Z,24.20
2019-06-01T19:47:13.824Z,24.20
2019-06-01T19:49:44.043Z,24.20
2019-06-01T19:52:20.508Z,24.20
2019-06-01T19:54:50.124Z,24.10
2019-06-01T19:57:26.151Z,24.10
2019-06-01T19:59:55.263Z,24.00
2019-06-01T20:02:33.904Z,24.00
2019-06-01T20:05:01.896Z,24.00
2019-06-01T20:07:37.675Z,23.90
2019-06-01T20:10:14.409Z,23.90
2019-06-01T20:12:50.348Z,23.80
2019-06-01T20:15:19.716Z,23.80
2019-06-01T20:17:56.075Z,23.70
2019-06-01T20:20:25.354Z,23.70
2019-06-01T20:23:02.598Z,23.60
2019-06-01T20:25:34.422Z,23.60
2019-06-01T20:28:18.107Z,23.60
2019-06-01T20:30:47.334Z,23.50
2019-06-01T20:33:23.906Z,23.50
2019-06-01T20:35:53.212Z,23.40
2019-06-01T20:38:28.980Z,23.40
2019-06-01T20:40:58.100Z,23.30
2019-06-01T20:43:27.857Z,23.20
2019-06-01T20:46:03.776Z,23.20
2019-06-01T20:48:35.424Z,23.10
2019-06-01T20:51:14.673Z,23.10
2019-06-01T20:53:45.269Z,23.00
2019-06-01T20:56:21.461Z,23.00
2019-06-01T20:58:51.034Z,23.00
2019-06-01T21:01:26.836Z,23.00
2019-06-01T21:03:56.162Z,22.90
2019-06-01T21:06:25.423Z,22.80
2019-06-01T21:09:00.960Z,22.70
2019-06-01T21:11:39.941Z,22.70
2019-06-01T21:14:22.752Z,22.70
2019-06-01T21:16:52.019Z,22.70
2019-06-01T21:19:22.390Z,22.70
2019-06-01T21:21:59.195Z,22.60
2019-06-01T21:24:28.403Z,22.50
2019-06-01T21:27:11.778Z,22.50
2019-06-01T21:29:41.836Z,22.50
2019-06-01T21:32:11.122Z,22.50
2019-06-01T21:34:47.112Z,22.50
2019-06-01T21:37:17.648Z,22.40
2019-06-01T21:39:54.073Z,22.40
2019-06-01T21:42:23.647Z,22.40
2019-06-01T21:44:59.777Z,22.40
2019-06-01T21:47:33.293Z,22.30
2019-06-01T21:50:11.302Z,22.30
2019-06-01T21:52:44.562Z,22.20
2019-06-01T21:55:22.181Z,22.20
2019-06-01T21:57:54.325Z,22.10
2019-06-01T22:00:37.632Z,22.10
2019-06-01T22:03:08.650Z,22.10
2019-06-01T22:05:37.886Z,22.10
2019-06-01T22:08:13.830Z,22.10
2019-06-01T22:10:49.972Z,22.10
2019-06-01T22:13:32.810Z,22.10
2019-06-01T22:16:02.149Z,22.10
2019-06-01T22:18:31.502Z,22.10
2019-06-01T22:21:07.148Z,22.10
2019-06-01T22:23:36.755Z,22.10
2019-06-01T22:26:14.412Z,22.00
2019-06-01T22:28:50.490Z,22.00
2019-06-01T22:31:28.582Z,21.90
2019-06-01T22:33:58.054Z,21.80
2019-06-01T22:36:33.694Z,21.80
2019-06-01T22:39:03.235Z,21.90
2019-06-01T22:41:33.322Z,21.70
2019-06-01T22:44:09.222Z,21.60
2019-06-01T22:46:38.489Z,21.60
2019-06-01T22:49:14.618Z,21.30
2019-06-01T22:51:44.088Z,21.20
2019-06-01T22:54:21.070Z,21.20
2019-06-01T22:56:54.819Z,21.10
2019-06-01T22:59:31.133Z,21.10
2019-06-01T23:02:01.614Z,21.20
2019-06-01T23:04:32.602Z,21.20
2019-06-01T23:07:09.166Z,21.20
2019-06-01T23:09:38.526Z,21.20
2019-06-01T23:12:23.344Z,21.10
2019-06-01T23:15:00.162Z,21.00
2019-06-01T23:17:35.677Z,20.90
2019-06-01T23:20:07.196Z,20.90
2019-06-01T23:22:45.658Z,20.90
2019-06-01T23:25:22.519Z,20.70
2019-06-01T23:27:58.840Z,20.50
2019-06-01T23:30:28.370Z,20.20
2019-06-01T23:33:04.237Z,20.00
2019-06-01T23:35:33.505Z,19.90
2019-06-01T23:38:02.664Z,19.70
2019-06-01T23:40:38.499Z,19.60
2019-06-01T23:43:07.670Z,19.40
2019-06-01T23:45:49.000Z,19.30
2019-06-01T23:48:18.396Z,19.10
2019-06-01T23:50:54.378Z,19.20
2019-06-01T23:53:23.532Z,19.20
2019-06-01T23:55:59.175Z,19.20
2019-06-01T23:58:28.495Z,19.20
